Time;durP1;ratioP1;P1;durP2;ratioP2;P2;SDS_P1;SDS_P2;PMS_P1;PMS_P2;Temp;Humidity;BMP_temperature;BMP_pressure;BME280_temperature;BME280_humidity;BME280_pressure;Samples;Min_cycle;Max_cycle;Signal;HPM_P1;HPM_P2
2023/08/12 00:01:39;;;;;;;20.45;14.05;;;21.20;99.90;;;;;;5014180;28;20046;-69
2023/08/12 00:04:05;;;;;;;25.17;15.60;;;21.10;99.90;;;;;;5014073;28;20464;-69
2023/08/12 00:06:30;;;;;;;25.95;14.88;;;21.20;99.90;;;;;;5014381;28;20026;-69
2023/08/12 00:08:56;;;;;;;28.45;16.65;;;21.10;99.90;;;;;;5014327;28;20025;-69
2023/08/12 00:11:21;;;;;;;27.98;16.33;;;21.00;99.90;;;;;;5014581;28;20452;-69
2023/08/12 00:13:47;;;;;;;24.55;17.00;;;21.00;99.90;;;;;;5014543;28;20491;-69
2023/08/12 00:16:13;;;;;;;29.58;18.63;;;20.90;99.90;;;;;;5014079;28;20509;-69
2023/08/12 00:18:38;;;;;;;30.02;19.35;;;20.80;99.90;;;;;;5014489;28;20116;-68
2023/08/12 00:21:09;;;;;;;35.63;20.73;;;20.80;99.90;;;;;;5014398;28;20029;-69
2023/08/12 00:23:40;;;;;;;39.15;21.92;;;20.70;99.90;;;;;;5014232;28;20026;-68
2023/08/12 00:26:06;;;;;;;29.98;22.63;;;20.70;99.90;;;;;;5014284;28;20026;-68
2023/08/12 00:28:32;;;;;;;38.40;22.70;;;20.60;99.90;;;;;;5014422;28;20380;-68
2023/08/12 00:30:58;;;;;;;32.17;22.77;;;20.50;99.90;;;;;;5014370;28;20029;-68
2023/08/12 00:33:23;;;;;;;38.10;24.60;;;20.50;99.90;;;;;;5014380;28;20494;-69
2023/08/12 00:35:49;;;;;;;37.80;25.60;;;20.40;99.90;;;;;;5013641;28;20121;-69
2023/08/12 00:38:14;;;;;;;40.20;25.88;;;20.40;99.90;;;;;;5014157;28;20030;-69
2023/08/12 00:40:40;;;;;;;42.72;26.40;;;20.40;99.90;;;;;;5014292;28;20029;-69
2023/08/12 00:43:06;;;;;;;40.28;27.10;;;20.40;99.90;;;;;;5013996;28;20034;-69
2023/08/12 00:45:31;;;;;;;43.83;27.70;;;20.30;99.90;;;;;;5014206;28;20381;-69
2023/08/12 00:47:57;;;;;;;38.65;28.08;;;20.30;99.90;;;;;;5013784;28;20026;-69
2023/08/12 00:50:23;;;;;;;40.90;28.48;;;20.30;99.90;;;;;;5013479;28;20121;-69
2023/08/12 00:52:50;;;;;;;39.45;27.60;;;20.30;99.90;;;;;;5013431;28;20038;-70
2023/08/12 00:55:16;;;;;;;43.35;27.77;;;20.30;99.90;;;;;;5014029;28;20539;-69
2023/08/12 00:57:42;;;;;;;46.58;29.10;;;20.20;99.90;;;;;;5013672;28;20026;-70
2023/08/12 01:00:09;;;;;;;40.65;27.70;;;20.20;99.90;;;;;;5014010;28;20030;-70
2023/08/12 01:02:34;;;;;;;46.95;30.05;;;20.30;99.90;;;;;;5016335;28;20140;-70
2023/08/12 01:05:00;;;;;;;48.63;30.20;;;20.10;99.90;;;;;;5016993;28;20037;-70
2023/08/12 01:07:26;;;;;;;47.63;30.42;;;20.20;99.90;;;;;;5017211;28;20077;-70
2023/08/12 01:09:52;;;;;;;44.55;30.55;;;20.20;99.90;;;;;;5017248;28;20100;-70
2023/08/12 01:12:33;;;;;;;43.78;31.20;;;20.10;99.90;;;;;;5017660;28;20057;-70
2023/08/12 01:15:08;;;;;;;45.88;31.70;;;20.00;99.90;;;;;;5017409;28;20468;-70
2023/08/12 01:17:36;;;;;;;44.50;32.33;;;20.00;99.90;;;;;;5017276;28;20038;-70
2023/08/12 01:20:08;;;;;;;50.85;33.95;;;20.00;99.90;;;;;;5017575;28;20478;-70
2023/08/12 01:22:39;;;;;;;51.65;34.00;;;20.00;99.90;;;;;;5017410;28;20072;-70
2023/08/12 01:25:05;;;;;;;51.20;34.03;;;20.00;99.90;;;;;;5017413;28;20022;-70
2023/08/12 01:27:31;;;;;;;46.90;34.55;;;20.00;99.90;;;;;;5017407;28;20117;-70
2023/08/12 01:29:57;;;;;;;47.20;32.80;;;20.00;99.90;;;;;;5016821;28;20057;-71
2023/08/12 01:32:48;;;;;;;42.03;30.17;;;20.00;99.90;;;;;;5017272;28;20049;-70
2023/08/12 01:35:24;;;;;;;44.72;31.30;;;19.90;99.90;;;;;;5017177;28;20026;-70
2023/08/12 01:37:52;;;;;;;50.35;33.60;;;19.90;99.90;;;;;;5016970;28;20495;-71
2023/08/12 01:40:19;;;;;;;49.72;32.75;;;20.00;99.90;;;;;;5017139;28;20026;-71
2023/08/12 01:42:45;;;;;;;45.45;31.40;;;19.90;99.90;;;;;;5016765;28;20065;-71
2023/08/12 01:45:11;;;;;;;46.15;32.28;;;20.00;99.90;;;;;;5017049;28;20114;-71
2023/08/12 01:47:37;;;;;;;40.97;29.73;;;19.90;99.90;;;;;;5017022;28;20070;-70
2023/08/12 01:50:03;;;;;;;49.67;32.60;;;20.00;99.90;;;;;;5016413;28;20026;-71
2023/08/12 01:52:29;;;;;;;50.13;33.70;;;19.90;99.90;;;;;;5016823;28;20460;-71
2023/08/12 01:54:54;;;;;;;47.40;34.03;;;20.00;99.90;;;;;;5016879;28;20030;-71
2023/08/12 01:57:20;;;;;;;54.53;34.83;;;20.00;99.90;;;;;;5016749;28;20061;-71
2023/08/12 01:59:46;;;;;;;52.05;35.75;;;20.00;99.90;;;;;;5016709;28;20375;-71
2023/08/12 02:02:12;;;;;;;52.75;34.75;;;19.90;99.90;;;;;;5015783;28;20096;-71
2023/08/12 02:04:39;;;;;;;52.33;35.15;;;19.90;99.90;;;;;;5016681;28;20057;-71
2023/08/12 02:07:04;;;;;;;48.72;33.05;;;20.20;99.90;;;;;;5016675;28;20483;-71
2023/08/12 02:09:30;;;;;;;53.85;36.65;;;19.90;99.90;;;;;;5016616;28;20060;-71
2023/08/12 02:11:56;;;;;;;54.30;37.72;;;20.00;99.90;;;;;;5016141;28;20022;-71
2023/08/12 02:14:22;;;;;;;61.53;38.85;;;20.00;99.90;;;;;;5016035;28;20034;-71
2023/08/12 02:16:48;;;;;;;61.47;40.65;;;19.90;99.90;;;;;;5016453;28;20034;-71
2023/08/12 02:19:14;;;;;;;57.80;38.63;;;19.90;99.90;;;;;;5016431;28;20037;-71
2023/08/12 02:21:40;;;;;;;55.70;38.58;;;19.90;99.90;;;;;;5016102;28;20025;-71
2023/08/12 02:24:07;;;;;;;56.90;39.15;;;19.90;99.90;;;;;;5015989;28;20030;-71
2023/08/12 02:26:32;;;;;;;57.67;39.63;;;19.90;99.90;;;;;;5015006;28;20030;-71
2023/08/12 02:28:58;;;;;;;54.92;38.28;;;19.90;99.90;;;;;;5015901;28;20040;-71
2023/08/12 02:31:23;;;;;;;60.47;40.45;;;19.90;99.90;;;;;;5014893;28;20032;-71
2023/08/12 02:33:49;;;;;;;59.60;40.42;;;19.90;99.90;;;;;;5015840;28;20048;-71
2023/08/12 02:36:15;;;;;;;58.50;38.92;;;19.90;99.90;;;;;;5015854;28;20026;-71
2023/08/12 02:38:41;;;;;;;53.30;38.00;;;19.90;99.90;;;;;;5016058;28;20088;-71
2023/08/12 02:41:06;;;;;;;51.10;36.35;;;19.90;99.90;;;;;;5015460;28;20057;-72
2023/08/12 02:43:32;;;;;;;54.53;38.75;;;19.90;99.90;;;;;;5015745;28;20034;-71
2023/08/12 02:45:57;;;;;;;45.67;33.28;;;19.90;99.90;;;;;;5015298;28;20100;-71
2023/08/12 02:48:23;;;;;;;54.97;38.03;;;19.90;99.90;;;;;;5015320;28;20124;-71
2023/08/12 02:50:49;;;;;;;55.97;37.38;;;19.90;99.90;;;;;;5015854;28;20114;-71
2023/08/12 02:53:15;;;;;;;56.30;37.95;;;19.90;99.90;;;;;;5015202;28;20034;-71
2023/08/12 02:55:41;;;;;;;54.22;37.35;;;19.90;99.90;;;;;;5014556;28;20022;-71
2023/08/12 02:58:07;;;;;;;57.38;38.10;;;19.90;99.90;;;;;;5015388;28;20034;-71
2023/08/12 03:00:32;;;;;;;57.80;38.50;;;19.90;99.90;;;;;;5015092;28;20391;-71
2023/08/12 03:02:58;;;;;;;58.00;37.67;;;19.90;99.90;;;;;;5014475;28;20143;-71
2023/08/12 03:05:24;;;;;;;55.83;38.00;;;19.90;99.90;;;;;;5015539;28;20117;-71
2023/08/12 03:07:51;;;;;;;59.75;41.08;;;19.90;99.90;;;;;;5015303;28;20032;-71
2023/08/12 03:10:17;;;;;;;64.00;41.70;;;19.90;99.90;;;;;;5015074;28;20036;-72
2023/08/12 03:12:43;;;;;;;65.20;43.05;;;19.90;99.90;;;;;;5015201;28;20030;-72
2023/08/12 03:15:09;;;;;;;64.00;41.92;;;19.80;99.90;;;;;;5015426;28;20112;-71
2023/08/12 03:17:35;;;;;;;65.72;43.20;;;19.80;99.90;;;;;;5015121;28;20083;-71
2023/08/12 03:20:04;;;;;;;60.17;41.45;;;19.80;99.90;;;;;;5014791;28;20037;-71
2023/08/12 03:22:30;;;;;;;63.78;40.33;;;19.90;99.90;;;;;;5014913;28;20088;-71
2023/08/12 03:24:55;;;;;;;56.53;40.17;;;19.90;99.90;;;;;;5014413;28;20026;-71
2023/08/12 03:27:21;;;;;;;58.00;41.20;;;19.90;99.90;;;;;;5014177;28;20029;-71
2023/08/12 03:29:47;;;;;;;56.42;39.95;;;19.90;99.90;;;;;;5015000;28;20064;-71
2023/08/12 03:32:13;;;;;;;52.17;38.03;;;19.90;99.90;;;;;;5015191;28;20036;-71
2023/08/12 03:34:38;;;;;;;61.58;41.35;;;19.90;99.90;;;;;;5015112;28;20044;-71
2023/08/12 03:37:04;;;;;;;55.08;38.72;;;19.90;99.90;;;;;;5015093;28;20030;-71
2023/08/12 03:39:30;;;;;;;58.60;40.13;;;19.90;99.90;;;;;;5014321;28;20037;-72
2023/08/12 03:41:56;;;;;;;63.63;41.63;;;19.90;99.90;;;;;;5014476;28;20040;-71
2023/08/12 03:44:21;;;;;;;63.63;42.78;;;19.90;99.90;;;;;;5014402;28;20041;-71
2023/08/12 03:46:47;;;;;;;63.85;43.70;;;19.90;99.90;;;;;;5014657;28;20030;-71
2023/08/12 03:49:12;;;;;;;56.92;42.03;;;19.90;99.90;;;;;;5014325;28;20033;-71
2023/08/12 03:51:38;;;;;;;61.83;42.28;;;19.90;99.90;;;;;;5014187;28;20022;-72
2023/08/12 03:54:04;;;;;;;66.32;45.17;;;19.90;99.90;;;;;;5014728;28;20096;-73
2023/08/12 03:56:30;;;;;;;63.72;43.15;;;19.80;99.90;;;;;;5014735;28;20357;-71
2023/08/12 03:58:55;;;;;;;64.78;45.42;;;19.80;99.90;;;;;;5014688;28;20380;-71
2023/08/12 04:01:21;;;;;;;70.72;44.85;;;19.90;99.90;;;;;;5013885;28;20053;-71
2023/08/12 04:03:47;;;;;;;63.80;42.58;;;19.90;99.90;;;;;;5013545;28;20530;-71
2023/08/12 04:06:12;;;;;;;68.25;44.30;;;19.80;99.90;;;;;;5014077;28;20113;-71
2023/08/12 04:08:38;;;;;;;70.78;46.92;;;19.80;99.90;;;;;;5014052;28;20053;-72
2023/08/12 04:11:04;;;;;;;74.65;47.30;;;19.80;99.90;;;;;;5014252;28;20037;-71
2023/08/12 04:13:30;;;;;;;71.03;45.92;;;19.80;99.90;;;;;;5014159;28;20040;-72
2023/08/12 04:15:55;;;;;;;68.97;46.70;;;19.80;99.90;;;;;;5014456;28;20120;-71
2023/08/12 04:18:22;;;;;;;74.68;48.17;;;19.80;99.90;;;;;;5014039;28;20029;-72
2023/08/12 04:20:49;;;;;;;80.60;49.22;;;19.80;99.90;;;;;;5013924;28;20052;-71
2023/08/12 04:23:15;;;;;;;74.13;49.00;;;19.80;99.90;;;;;;5013401;28;20088;-72
2023/08/12 04:25:45;;;;;;;71.53;47.20;;;19.80;99.90;;;;;;5014390;28;20034;-72
2023/08/12 04:28:11;;;;;;;76.20;47.67;;;19.70;99.90;;;;;;5014078;28;20029;-72
2023/08/12 04:30:41;;;;;;;71.60;46.15;;;19.80;99.90;;;;;;5014316;28;20024;-72
2023/08/12 04:33:07;;;;;;;78.75;49.38;;;19.70;99.90;;;;;;5013813;28;20105;-72
2023/08/12 04:35:32;;;;;;;79.20;50.72;;;19.70;99.90;;;;;;5015889;28;20454;-72
2023/08/12 04:37:58;;;;;;;84.60;51.63;;;19.70;99.90;;;;;;5017871;28;20037;-71
2023/08/12 04:40:23;;;;;;;88.15;54.28;;;19.80;99.90;;;;;;5017530;28;20065;-72
2023/08/12 04:42:49;;;;;;;81.57;51.47;;;19.70;99.90;;;;;;5017885;28;20036;-72
2023/08/12 04:45:15;;;;;;;92.38;53.00;;;19.70;99.90;;;;;;5017877;28;20029;-72
2023/08/12 04:47:40;;;;;;;87.22;52.78;;;19.70;99.90;;;;;;5017594;28;20026;-72
2023/08/12 04:50:06;;;;;;;90.65;53.67;;;19.70;99.90;;;;;;5017611;28;20105;-71
2023/08/12 04:52:32;;;;;;;94.57;55.00;;;19.80;99.90;;;;;;5017959;28;20034;-72
2023/08/12 04:54:58;;;;;;;87.68;52.50;;;19.80;99.90;;;;;;5017963;28;20549;-72
2023/08/12 04:57:23;;;;;;;98.72;53.95;;;19.80;99.90;;;;;;5017344;28;20037;-71
2023/08/12 04:59:49;;;;;;;95.95;55.40;;;19.90;99.90;;;;;;5017664;28;20045;-71
2023/08/12 05:02:15;;;;;;;91.57;52.67;;;20.00;99.90;;;;;;5017715;28;20046;-71
2023/08/12 05:04:40;;;;;;;78.70;48.72;;;20.10;99.90;;;;;;5017355;28;20026;-70
2023/08/12 05:07:06;;;;;;;77.28;46.75;;;20.20;99.90;;;;;;5017325;28;20033;-70
2023/08/12 05:09:31;;;;;;;71.85;44.67;;;20.30;99.90;;;;;;5017509;28;20026;-70
2023/08/12 05:11:57;;;;;;;74.60;43.63;;;20.40;99.90;;;;;;5017658;28;20033;-70
2023/08/12 05:14:23;;;;;;;63.42;42.17;;;20.50;99.90;;;;;;5017066;28;20084;-70
2023/08/12 05:16:48;;;;;;;62.72;40.30;;;20.60;99.90;;;;;;5017223;28;20038;-70
2023/08/12 05:19:14;;;;;;;57.95;39.50;;;20.40;99.90;;;;;;5017044;28;20087;-70
2023/08/12 05:21:40;;;;;;;64.97;40.13;;;20.40;99.90;;;;;;5017464;28;20044;-70
2023/08/12 05:24:06;;;;;;;57.58;38.05;;;20.50;99.90;;;;;;5017205;28;20464;-70
2023/08/12 05:26:33;;;;;;;55.20;36.60;;;20.50;99.90;;;;;;5016944;28;20044;-70
2023/08/12 05:28:59;;;;;;;55.22;37.58;;;20.40;99.90;;;;;;5017417;28;20018;-70
2023/08/12 05:31:24;;;;;;;51.15;34.85;;;20.50;99.90;;;;;;5017094;28;20037;-70
2023/08/12 05:33:51;;;;;;;52.20;34.75;;;20.40;99.90;;;;;;5017274;28;20033;-70
2023/08/12 05:36:16;;;;;;;58.47;36.22;;;20.40;99.90;;;;;;5017255;28;20108;-70
2023/08/12 05:38:42;;;;;;;51.17;36.05;;;20.40;99.90;;;;;;5017216;28;20472;-70
2023/08/12 05:41:08;;;;;;;45.97;32.40;;;20.50;99.90;;;;;;5016380;28;20038;-70
2023/08/12 05:43:34;;;;;;;50.53;33.80;;;20.50;99.90;;;;;;5016653;28;20144;-70
2023/08/12 05:45:59;;;;;;;44.35;30.80;;;20.60;99.90;;;;;;5016952;28;20371;-70
2023/08/12 05:48:25;;;;;;;43.42;30.08;;;20.80;99.90;;;;;;5015201;28;20018;-70
2023/08/12 05:50:50;;;;;;;34.17;25.65;;;21.00;99.90;;;;;;5016113;28;20104;-70
2023/08/12 05:53:16;;;;;;;30.05;23.13;;;21.70;99.90;;;;;;5016220;28;20034;-71
2023/08/12 05:55:42;;;;;;;25.52;16.98;;;23.00;99.90;;;;;;5016561;28;20040;-71
2023/08/12 05:58:07;;;;;;;19.80;14.90;;;24.80;99.90;;;;;;5016739;28;20022;-71
2023/08/12 06:00:33;;;;;;;15.93;13.35;;;26.50;36.50;;;;;;5016781;28;20061;-71
2023/08/12 06:02:59;;;;;;;13.77;12.07;;;27.00;1.00;;;;;;5015500;28;20057;-71
2023/08/12 06:05:24;;;;;;;16.48;13.57;;;27.50;1.00;;;;;;5016692;28;20087;-71
2023/08/12 06:07:50;;;;;;;15.10;12.90;;;26.90;1.00;;;;;;5016559;28;20037;-71
2023/08/12 06:10:16;;;;;;;14.88;12.60;;;26.20;1.00;;;;;;5016263;28;20072;-71
2023/08/12 06:12:41;;;;;;;12.98;11.65;;;25.90;5.50;;;;;;5016481;28;20029;-71
2023/08/12 06:15:07;;;;;;;14.77;11.90;;;26.50;1.00;;;;;;5016462;28;20034;-71
2023/08/12 06:17:33;;;;;;;13.10;11.52;;;27.20;1.00;;;;;;5015937;28;20135;-71
2023/08/12 06:19:58;;;;;;;13.65;10.90;;;28.70;99.90;;;;;;5015923;28;20045;-71
2023/08/12 06:22:24;;;;;;;11.90;10.48;;;29.10;1.00;;;;;;5016257;28;20068;-71
2023/08/12 06:24:49;;;;;;;13.85;12.32;;;28.20;99.90;;;;;;5015617;28;20491;-71
2023/08/12 06:27:15;;;;;;;13.40;12.00;;;27.60;99.90;;;;;;5016209;28;20022;-71
2023/08/12 06:29:41;;;;;;;12.43;10.85;;;26.30;1.00;;;;;;5016277;28;20068;-71
2023/08/12 06:32:06;;;;;;;12.80;11.50;;;25.60;1.00;;;;;;5015676;28;20014;-70
2023/08/12 06:34:32;;;;;;;11.65;10.48;;;25.10;1.00;;;;;;5015863;28;20365;-70
2023/08/12 06:36:57;;;;;;;12.15;10.95;;;25.10;11.30;;;;;;5015564;28;20026;-70
2023/08/12 06:39:23;;;;;;;12.32;11.07;;;25.40;1.00;;;;;;5015229;28;20392;-70
2023/08/12 06:41:50;;;;;;;14.43;11.48;;;24.80;1.00;;;;;;5016033;28;20045;-70
2023/08/12 06:44:16;;;;;;;15.48;12.20;;;24.40;17.00;;;;;;5015740;28;20022;-70
2023/08/12 06:46:42;;;;;;;14.07;12.15;;;24.10;54.30;;;;;;5015975;28;20037;-70
2023/08/12 06:49:07;;;;;;;14.02;11.70;;;23.90;70.60;;;;;;5015881;28;20121;-70
2023/08/12 06:51:33;;;;;;;12.73;10.75;;;24.50;57.00;;;;;;5015371;28;20425;-70
2023/08/12 06:53:58;;;;;;;11.32;10.23;;;26.00;1.00;;;;;;5015585;28;20038;-70
2023/08/12 06:56:24;;;;;;;12.10;9.18;;;26.30;1.00;;;;;;5015018;28;20029;-70
2023/08/12 06:58:50;;;;;;;9.82;8.20;;;26.60;1.00;;;;;;5015221;28;20152;-70
2023/08/12 07:01:15;;;;;;;8.55;7.72;;;26.00;1.00;;;;;;5015376;28;20440;-71
2023/08/12 07:03:41;;;;;;;12.18;8.25;;;25.30;1.00;;;;;;5014480;28;20040;-70
2023/08/12 07:06:06;;;;;;;8.73;7.82;;;24.80;10.60;;;;;;5015047;28;20030;-70
2023/08/12 07:08:32;;;;;;;8.90;7.32;;;24.20;54.50;;;;;;5015097;28;20018;-70
2023/08/12 07:10:58;;;;;;;8.13;7.32;;;23.60;79.40;;;;;;5015477;28;20482;-70
2023/08/12 07:13:23;;;;;;;11.05;8.27;;;23.20;99.90;;;;;;5015470;28;20034;-70
2023/08/12 07:15:49;;;;;;;10.15;7.75;;;22.80;99.90;;;;;;5015333;28;20131;-70
2023/08/12 07:18:15;;;;;;;11.13;7.93;;;22.60;99.90;;;;;;5014545;28;20032;-70
2023/08/12 07:20:41;;;;;;;13.25;7.97;;;22.50;99.90;;;;;;5015072;28;20085;-70
2023/08/12 07:23:06;;;;;;;8.43;6.85;;;22.40;99.90;;;;;;5015031;28;20033;-70
2023/08/12 07:25:32;;;;;;;8.18;6.72;;;22.30;99.90;;;;;;5015298;28;20383;-70
2023/08/12 07:27:58;;;;;;;8.45;6.65;;;22.20;99.90;;;;;;5014557;28;20029;-70
2023/08/12 07:30:23;;;;;;;7.40;5.50;;;22.60;99.90;;;;;;5014913;28;20053;-70
2023/08/12 07:32:49;;;;;;;8.00;5.97;;;22.00;99.90;;;;;;5014742;28;20080;-70
2023/08/12 07:35:15;;;;;;;7.18;5.63;;;21.90;99.90;;;;;;5015129;28;20018;-70
2023/08/12 07:37:40;;;;;;;9.95;6.85;;;21.70;99.90;;;;;;5014804;28;20026;-69
2023/08/12 07:40:08;;;;;;;8.57;6.32;;;21.60;99.90;;;;;;5014936;28;20037;-70
2023/08/12 07:42:34;;;;;;;7.72;5.72;;;21.50;99.90;;;;;;5014918;28;20026;-70
2023/08/12 07:44:59;;;;;;;8.93;6.00;;;21.40;99.90;;;;;;5014650;28;20022;-70
2023/08/12 07:47:25;;;;;;;7.60;5.55;;;21.40;99.90;;;;;;5014866;28;20029;-70
2023/08/12 07:49:50;;;;;;;10.73;6.53;;;21.40;99.90;;;;;;5014531;28;20026;-70
2023/08/12 07:52:16;;;;;;;6.85;5.80;;;21.40;99.90;;;;;;5014028;28;20026;-70
2023/08/12 07:54:42;;;;;;;6.93;6.22;;;21.50;99.90;;;;;;5014632;28;20030;-70
2023/08/12 07:57:07;;;;;;;7.30;5.20;;;21.50;99.90;;;;;;5014188;28;20486;-70
2023/08/12 07:59:33;;;;;;;8.52;5.82;;;21.50;99.90;;;;;;5014449;28;20038;-70
2023/08/12 08:01:58;;;;;;;9.32;6.45;;;21.40;99.90;;;;;;5013626;28;20049;-70
2023/08/12 08:04:24;;;;;;;8.27;6.38;;;21.40;99.90;;;;;;5014303;28;20042;-70
2023/08/12 08:06:50;;;;;;;9.75;6.32;;;21.40;99.90;;;;;;5014546;28;20069;-70
2023/08/12 08:09:15;;;;;;;8.48;6.47;;;21.40;99.90;;;;;;5013461;28;20049;-70
2023/08/12 08:11:41;;;;;;;11.10;6.97;;;21.50;99.90;;;;;;5014102;28;20030;-70
2023/08/12 08:14:07;;;;;;;8.27;5.68;;;21.50;99.90;;;;;;5014497;28;20041;-71
2023/08/12 08:16:32;;;;;;;7.22;5.90;;;21.50;99.90;;;;;;5013985;28;20057;-71
2023/08/12 08:18:58;;;;;;;9.85;5.93;;;21.50;99.90;;;;;;5013750;28;20037;-70
2023/08/12 08:21:24;;;;;;;6.43;5.75;;;21.50;99.90;;;;;;5014059;28;20040;-70
2023/08/12 08:23:50;;;;;;;7.00;6.05;;;21.60;99.90;;;;;;5014214;28;20478;-71
2023/08/12 08:26:15;;;;;;;7.28;5.65;;;21.80;99.90;;;;;;5013761;28;20030;-71
2023/08/12 08:28:41;;;;;;;8.90;5.15;;;22.10;99.90;;;;;;5014156;28;20037;-71
2023/08/12 08:31:07;;;;;;;6.82;4.75;;;22.40;99.90;;;;;;5014396;28;20113;-70
2023/08/12 08:33:32;;;;;;;7.05;5.40;;;22.50;99.90;;;;;;5014106;28;20345;-70
2023/08/12 08:35:58;;;;;;;8.98;4.88;;;22.50;99.90;;;;;;5014373;28;20072;-70
2023/08/12 08:38:24;;;;;;;6.55;4.95;;;22.30;99.90;;;;;;5013810;28;20442;-71
2023/08/12 08:40:50;;;;;;;6.25;5.07;;;22.50;99.90;;;;;;5014251;28;20034;-71
2023/08/12 08:43:21;;;;;;;6.78;4.60;;;22.60;99.90;;;;;;5013593;28;20030;-71
2023/08/12 08:45:52;;;;;;;5.72;4.10;;;22.80;99.90;;;;;;5014336;28;20026;-71
2023/08/12 08:48:19;;;;;;;5.03;4.43;;;23.30;99.90;;;;;;5013343;28;20088;-70
2023/08/12 08:50:46;;;;;;;4.78;4.22;;;23.60;99.90;;;;;;5013736;28;20029;-70
2023/08/12 08:53:14;;;;;;;6.40;3.92;;;23.70;99.90;;;;;;5013948;28;20380;-70
2023/08/12 08:55:41;;;;;;;4.10;3.70;;;23.50;99.90;;;;;;5014009;28;20037;-70
2023/08/12 08:58:07;;;;;;;5.13;3.65;;;23.50;99.90;;;;;;5014164;28;20456;-70
2023/08/12 09:00:32;;;;;;;4.20;3.80;;;23.40;99.90;;;;;;5013649;28;20026;-70
2023/08/12 09:02:58;;;;;;;4.95;3.95;;;23.10;99.90;;;;;;5012817;28;20054;-70
2023/08/12 09:05:26;;;;;;;6.70;3.90;;;23.60;99.90;;;;;;5013938;28;20349;-70
2023/08/12 09:07:54;;;;;;;5.13;3.78;;;24.60;99.90;;;;;;5013808;28;20022;-70
2023/08/12 09:10:21;;;;;;;3.83;3.30;;;24.90;64.10;;;;;;5013945;28;20033;-70
2023/08/12 09:12:47;;;;;;;4.35;3.47;;;25.40;41.90;;;;;;5013996;28;20533;-70
2023/08/12 09:15:13;;;;;;;3.85;3.25;;;25.00;46.60;;;;;;5013941;28;20029;-70
2023/08/12 09:17:39;;;;;;;2.90;2.70;;;24.80;79.50;;;;;;5013972;28;20491;-70
2023/08/12 09:20:11;;;;;;;5.80;3.15;;;24.40;66.00;;;;;;5013910;28;20034;-70
2023/08/12 09:22:38;;;;;;;5.53;3.67;;;23.90;68.00;;;;;;5014913;28;20479;-70
2023/08/12 09:25:04;;;;;;;5.38;3.63;;;23.70;99.90;;;;;;5017260;28;20273;-70
2023/08/12 09:27:32;;;;;;;3.30;3.00;;;23.60;99.90;;;;;;5016622;28;20029;-70
2023/08/12 09:29:58;;;;;;;3.92;3.33;;;23.60;99.90;;;;;;5017338;28;20523;-70
2023/08/12 09:32:24;;;;;;;4.20;3.38;;;23.50;99.90;;;;;;5017232;28;20022;-70
2023/08/12 09:34:51;;;;;;;3.65;3.03;;;23.40;99.90;;;;;;5016554;28;20365;-69
2023/08/12 09:37:18;;;;;;;3.45;3.15;;;23.30;99.90;;;;;;5016528;28;20419;-69
2023/08/12 09:39:44;;;;;;;4.25;2.60;;;23.30;99.90;;;;;;5016902;28;20112;-70
2023/08/12 09:42:11;;;;;;;4.93;2.88;;;23.40;99.90;;;;;;5016835;28;20018;-69
2023/08/12 09:44:37;;;;;;;4.60;3.03;;;23.70;99.90;;;;;;5016225;28;20029;-69
2023/08/12 09:47:03;;;;;;;3.58;2.75;;;23.60;99.90;;;;;;5016849;28;20022;-69
2023/08/12 09:49:29;;;;;;;2.75;2.55;;;23.30;99.90;;;;;;5016491;28;20078;-69
2023/08/12 09:51:56;;;;;;;5.05;2.80;;;23.60;99.90;;;;;;5016976;28;20049;-69
2023/08/12 09:54:21;;;;;;;3.22;2.78;;;23.40;99.90;;;;;;5016392;28;20037;-69
2023/08/12 09:56:49;;;;;;;3.80;2.65;;;23.30;99.90;;;;;;5016897;28;20030;-69
2023/08/12 09:59:20;;;;;;;4.25;3.38;;;23.10;99.90;;;;;;5015863;28;20033;-70
2023/08/12 10:01:46;;;;;;;3.35;3.05;;;23.20;99.90;;;;;;5015997;28;20042;-69
2023/08/12 10:04:15;;;;;;;5.60;3.20;;;23.00;99.90;;;;;;5015959;28;20053;-69
2023/08/12 10:06:41;;;;;;;4.45;3.30;;;22.60;99.90;;;;;;5016696;28;20030;-69
2023/08/12 10:09:08;;;;;;;2.80;2.50;;;22.90;99.90;;;;;;5016659;28;20472;-68
2023/08/12 10:11:35;;;;;;;4.30;2.78;;;22.80;99.90;;;;;;5016510;28;20026;-69
2023/08/12 10:14:02;;;;;;;2.85;2.65;;;22.70;99.90;;;;;;5016025;28;20022;-69
2023/08/12 10:16:29;;;;;;;4.10;2.67;;;22.90;99.90;;;;;;5015451;28;20030;-69
2023/08/12 10:18:57;;;;;;;3.55;2.50;;;22.90;99.90;;;;;;5016291;28;20084;-69
2023/08/12 10:21:23;;;;;;;2.30;2.10;;;23.00;99.90;;;;;;5015825;28;20037;-69
2023/08/12 10:23:50;;;;;;;4.53;2.13;;;23.00;99.90;;;;;;5015817;28;20380;-69
2023/08/12 10:26:17;;;;;;;4.53;2.55;;;23.10;99.90;;;;;;5015972;28;20030;-69
2023/08/12 10:28:43;;;;;;;2.47;2.08;;;23.30;99.90;;;;;;5016077;28;20025;-69
2023/08/12 10:31:11;;;;;;;2.15;1.80;;;23.50;99.90;;;;;;5015941;28;20482;-69
2023/08/12 10:33:38;;;;;;;2.00;1.70;;;23.70;99.90;;;;;;5014994;28;20456;-71
2023/08/12 10:36:05;;;;;;;3.75;2.30;;;23.80;99.90;;;;;;5015872;28;20033;-69
2023/08/12 10:38:32;;;;;;;2.38;1.90;;;23.50;99.90;;;;;;5016055;28;20065;-70
2023/08/12 10:41:18;;;;;;;2.22;2.03;;;23.30;99.90;;;;;;5015821;28;20026;-69
2023/08/12 10:46:34;;;;;;;3.53;1.98;;;23.20;99.90;;;;;;5091574;28;20381;-69
2023/08/12 10:49:09;;;;;;;2.38;2.17;;;22.90;99.90;;;;;;5091812;28;20090;-69
2023/08/12 10:51:52;;;;;;;2.97;2.20;;;22.70;99.90;;;;;;5091099;28;20055;-69
2023/08/12 10:54:30;;;;;;;2.38;2.15;;;22.70;99.90;;;;;;5090971;28;20374;-69
2023/08/12 10:59:50;;;;;;;3.42;2.20;;;22.80;99.90;;;;;;5071464;28;20383;-69
2023/08/12 11:02:32;;;;;;;2.50;2.30;;;22.80;99.90;;;;;;5070713;28;20125;-69
2023/08/12 11:05:04;;;;;;;2.67;2.45;;;23.20;99.90;;;;;;5070634;28;20029;-69
2023/08/12 11:10:16;;;;;;;1.88;1.70;;;22.90;99.90;;;;;;5111989;27;20380;-70
2023/08/12 11:12:48;;;;;;;3.17;1.65;;;23.30;99.90;;;;;;5112124;28;20538;-70
2023/08/12 11:15:14;;;;;;;1.90;1.70;;;23.30;99.90;;;;;;5111361;28;20031;-70
2023/08/12 11:17:41;;;;;;;2.38;1.73;;;24.90;96.80;;;;;;5112007;28;20325;-70
2023/08/12 11:20:09;;;;;;;2.15;1.88;;;23.30;94.40;;;;;;5112126;28;20346;-71
2023/08/12 11:22:40;;;;;;;2.30;2.00;;;23.20;99.90;;;;;;5111395;28;20085;-70
2023/08/12 11:25:08;;;;;;;2.85;1.65;;;23.10;99.90;;;;;;5111903;28;20032;-71
2023/08/12 11:27:37;;;;;;;2.22;1.70;;;23.10;99.90;;;;;;5111669;28;20433;-70
2023/08/12 11:30:03;;;;;;;2.72;1.92;;;23.10;99.90;;;;;;5111126;28;20023;-71
2023/08/12 11:32:29;;;;;;;3.40;2.10;;;23.20;99.90;;;;;;5111991;28;20031;-71
2023/08/12 11:34:55;;;;;;;2.03;1.70;;;23.40;92.10;;;;;;5111956;28;20035;-70
2023/08/12 11:37:20;;;;;;;2.50;1.70;;;23.60;89.20;;;;;;5111863;28;20476;-70
2023/08/12 11:39:46;;;;;;;1.60;1.50;;;23.90;71.60;;;;;;5112125;28;20057;-70
2023/08/12 11:42:11;;;;;;;4.40;1.95;;;24.10;30.20;;;;;;5111128;28;20035;-70
2023/08/12 11:44:40;;;;;;;3.85;1.38;;;24.00;65.00;;;;;;5111648;28;20043;-70
2023/08/12 11:47:06;;;;;;;2.28;1.70;;;23.90;43.40;;;;;;5111787;28;20031;-70
2023/08/12 11:49:31;;;;;;;3.60;1.60;;;23.60;64.40;;;;;;5111810;28;20031;-70
2023/08/12 11:51:57;;;;;;;1.73;1.60;;;23.60;87.40;;;;;;5112006;28;20024;-71
2023/08/12 11:54:23;;;;;;;2.72;1.70;;;23.50;95.10;;;;;;5111628;28;20119;-71
2023/08/12 11:56:49;;;;;;;1.80;1.70;;;23.40;99.90;;;;;;5111785;28;20080;-70
2023/08/12 11:59:15;;;;;;;3.45;1.90;;;23.30;99.90;;;;;;5111621;28;20045;-71
2023/08/12 12:01:40;;;;;;;2.78;1.80;;;23.00;99.90;;;;;;5111300;28;20063;-70
2023/08/12 12:04:06;;;;;;;4.25;1.88;;;23.10;99.90;;;;;;5111588;28;20044;-70
2023/08/12 12:06:35;;;;;;;3.08;1.88;;;23.10;99.90;;;;;;5110527;28;20084;-71
2023/08/12 12:09:09;;;;;;;3.58;2.13;;;22.80;99.90;;;;;;5110546;28;20071;-71
2023/08/12 12:11:36;;;;;;;2.35;2.15;;;22.70;99.90;;;;;;5111138;28;20418;-70
2023/08/12 12:14:03;;;;;;;3.85;2.70;;;22.80;99.90;;;;;;5111105;28;20119;-71
2023/08/12 12:16:46;;;;;;;4.07;2.42;;;22.80;99.90;;;;;;5110752;28;20031;-70
2023/08/12 12:19:19;;;;;;;3.33;2.33;;;22.50;99.90;;;;;;5110589;28;20024;-70
2023/08/12 12:21:46;;;;;;;2.97;2.20;;;22.10;99.90;;;;;;5096462;28;20233;-70
2023/08/12 12:24:12;;;;;;;2.70;2.40;;;22.30;99.90;;;;;;5097225;28;20047;-70
2023/08/12 12:26:37;;;;;;;2.60;2.40;;;22.10;99.90;;;;;;5097060;28;20021;-70
2023/08/12 12:29:05;;;;;;;5.60;3.33;;;22.10;99.90;;;;;;5097033;28;20488;-71
2023/08/12 12:31:34;;;;;;;3.00;2.75;;;22.10;99.90;;;;;;5097073;28;20453;-70
2023/08/12 12:34:00;;;;;;;2.83;2.63;;;22.10;99.90;;;;;;5096833;28;20465;-70
2023/08/12 12:36:26;;;;;;;3.08;2.40;;;21.70;99.90;;;;;;5096574;28;20024;-70
2023/08/12 12:38:52;;;;;;;2.92;2.13;;;22.10;99.90;;;;;;5096679;28;20488;-70
2023/08/12 12:41:17;;;;;;;1.90;1.80;;;22.10;99.90;;;;;;5096457;28;20024;-71